USTRANSCOM 7740


OBBI
Bahrain International Airport
Manama, BH
HDAM
Ambouli International Airport
Djibouti, DJ

Activity Log

Date Flight Route Aircraft Duration
No Flights Yet

Route Details

Aircraft Information
Primary: Boeing 757-200SF
Backup: Not Available
Route Data
Distance: 977nm
Sched. Duration: 2h 29m
Avg. Duration: 0h 00m (-230m)
Times Flown: 0
Recm'd Route: NARMI Q212 KIA G667 PARIM PARIM2V
Planned Altitude: 34,000ft
Origin Wx: OBBI 061230Z 33010KT CAVOK 29/08 Q1013 NOSIG
Dest. Wx: HDAM 061100Z 07008KT 9999 SCT023 32/25 Q1013
Notes: USTRANSCOM CONTRACT FLIGHT

Financial History
Total Freight: 0lbs
Average Load: 0lbs/flt
Fuel Used: 0lbs
Avg. Fuel Used: 0lbs/flt
Fuel Expense: $0
Avg. Fuel Expense: $0
Avg. Fuel Cost: $0/lbs
Total Gross Income: $0
Pilot Pay: $0
Total Expenses: $0
Total Revenue: $0
Average Revenue: $0